Vliegveldwaarnemingen Nederland - (AUTO) METAR

Luchtvaartmeteorologische informatie voor operationeel gebruik en vluchtvoorbereiding is beschikbaar op www.luchtvaartmeteo.nl.

ZCZC
SA141255 EHFS     VLISSINGEN AWS   NLD   8 m.
METAR EHFS 141255Z AUTO 08007KT 5000 BR FEW009/// BKN010/// BKN012///
02/01 Q1023 W///H///=

ZCZC
SA141325 EHKD     DE KOOY/DE KOOY   NLD   1 m.
METAR EHKD 141325Z AUTO 09011KT 070V130 9999 NCD 03/M02 Q1025
BLU 09010KT CAVOK=

ZCZC
SA141325 EHFD     F3-FB-1   NLD   50 m.
METAR EHFD 141325Z AUTO 09012KT 9999 SCT027/// SCT031/// BKN035///
05/M02 Q1025 W///H///=

ZCZC
SA141325 EHAM     AMSTERDAM/SCHIPHOL   NLD   -3 m.
METAR EHAM 141325Z 07009KT 040V100 9999 FEW019 03/M01 Q1024 NOSIG=

ZCZC
SA141325 EHVL     VLIELAND   NLD   10 m.
METAR EHVL 141325Z AUTO 12014KT 9999 NCD 04/M02 Q1025 BLU=

ZCZC
SA141325 EHJR     K13-A   NLD   37 m.
METAR EHJR 141325Z AUTO 12018KT //// // ///////// 05/M05 Q1024 RE//
W///H14=

ZCZC
SA141325 EHLW     LEEUWARDEN/LEEUWARDEN   NLD   1 m.
METAR EHLW 141325Z AUTO 10009KT 020V170 9999 FEW046 BKN051 OVC057
03/M03 Q1025
BLU 08005KT CAVOK RMK R05=

ZCZC
SA141325 EHDL     ARNHEM/DEELEN   NLD   48 m.
METAR EHDL 141325Z AUTO 07005KT 030V130 9999 OVC041 02/M01 Q1023 BLU=

ZCZC
SA141325 EHGG     GRONINGEN/EELDE   NLD   5 m.
METAR EHGG 141325Z AUTO 09007KT 060V130 9999 OVC048 03/M02 Q1025
NOSIG=

ZCZC
SA141325 EHSC     LICHTEILAND GOEREE   NLD   22 m.
METAR EHSC 141325Z AUTO 09009KT 9999 ///////// 03/M01 Q1023 W08/H7=

ZCZC
SA141325 EHSA     EURO PLATFORM   NLD   19 m.
METAR EHSA 141325Z AUTO 08012KT 9999 ///////// 04/M03 Q1023 W08/H8=

ZCZC
SA141325 EHWO     WOENSDRECHT/WOENSDRECHT   NLD   19 m.
METAR EHWO 141325Z AUTO 07005KT 030V100 6000 BR SCT006 SCT008 OVC039
01/00 Q1023
YLO 07006KT 6000 FEW007 BKN040 TEMPO SCT007 BKN040=

ZCZC
SA141325 EHRD     ROTTERDAM/THE HAGUE AIRPORT   NLD   -5 m.
METAR EHRD 141325Z AUTO 07009KT 9999 NCD 02/M01 Q1023 NOSIG=

ZCZC
SA141325 EHGR     GILZE-RIJEN/GILZE-RIJEN   NLD   14 m.
METAR EHGR 141325Z AUTO 06008KT 030V100 9999 FEW012 01/M01 Q1023
BLU 06006KT 8000 FEW008 BBKN040=

ZCZC
SA141325 EHEH     EINDHOVEN/EINDHOVEN   NLD   22 m.
METAR EHEH 141325Z AUTO 06008KT 020V090 9999 OVC038 02/M01 Q1023
BLU 05008KT 9999 FEW010 BKN040 TEMPO SCT010 BKN040=

ZCZC
SA141325 EHVK     VOLKEL/VOLKEL   NLD   21 m.
METAR EHVK 141325Z AUTO 05007KT 9999 OVC037 01/M01 Q1023
BLU 06008KT 9999 BKN036=

ZCZC
SA141325 EHBK     MAASTRICHT/MAASTRICHT-AACHEN   NLD   114 m.
METAR EHBK 141325Z AUTO 08006KT 050V110 9999 FEW028 BKN032 OVC036
01/M04 Q1022 NOSIG=

ZCZC
SA141325 EHFZ     F16-A   NLD   43 m.
METAR EHFZ 141325Z AUTO 11011KT 9999 -UP FEW019 SCT029 BKN036 03/01
Q1025 W///H///=

ZCZC
SA141325 EHKV     K14-FA-1C   NLD   41 m.
METAR EHKV 141325Z AUTO 11019KT 9999 FEW043 05/M06 Q1025 W///H///=

ZCZC
SA141325 EHMG     L9-FF-1   NLD   44 m.
METAR EHMG 141325Z AUTO 13014KT 9999 NSC 05/M04 Q1025 W///H///=

ZCZC
SA141325 EHMA     AWG-1   NLD   40 m.
METAR EHMA 141325Z AUTO 11010KT //// // NSC 04/M03 Q1025 RE//
W///H///=

ZCZC
SA141325 EHDV     D15-FA-1   NLD   42 m.
METAR EHDV 141325Z AUTO 13005KT 080V160 9999 FEW009/// SCT032///
BKN036/// 04/M00 Q1025 W///H///=

ZCZC
SA141325 EHAK     A12-CPP   NLD   48 m.
METAR EHAK 141325Z AUTO 12014KT 080V150 9999 SCT033/// BKN043///
06/M02 Q1026 W///H///=

ZCZC
SA141325 EHQE     HOORN-A   NLD   50 m.
METAR EHQE 141325Z AUTO 06017KT 9999 FEW024 04/M06 Q1024 W///H///=

ZCZC
SA141325 EHJA     J6-A   NLD   45 m.
METAR EHJA 141325Z AUTO 12017KT 9999 FEW035/// SCT042/// 05/M03 Q1025
W///H///=

ZCZC
SA141325 EHPG     P11-B   NLD   41 m.
METAR EHPG 141325Z AUTO 07014KT 9999 SCT021 BKN024 BKN037 04/M01
Q1023 W///H///=

ZCZC
SA141325 EHHW     BUITENGAATS/BG-OHVS2      42 m.
METAR EHHW 141325Z AUTO 08008KT 040V210 //// // FEW015/// SCT036///
BKN043/// 04/00 Q1025 RE// W///H///=

14/12/2018 14.30 uur LT